sensor_id;sensor_type;location;lat;lon;timestamp;temperature;humidity
63537;DHT22;49686;51.880;5.632;2022-11-15T00:00:26;4.70;99.90
63537;DHT22;49686;51.880;5.632;2022-11-15T00:02:52;4.70;99.90
63537;DHT22;49686;51.880;5.632;2022-11-15T00:05:19;4.70;99.90
63537;DHT22;49686;51.880;5.632;2022-11-15T00:07:46;4.70;99.90
63537;DHT22;49686;51.880;5.632;2022-11-15T00:10:22;4.70;99.90
63537;DHT22;49686;51.880;5.632;2022-11-15T00:12:48;4.70;99.90
63537;DHT22;49686;51.880;5.632;2022-11-15T00:15:15;4.70;99.90
63537;DHT22;49686;51.880;5.632;2022-11-15T00:17:43;4.70;99.90
63537;DHT22;49686;51.880;5.632;2022-11-15T00:20:10;4.80;99.90
63537;DHT22;49686;51.880;5.632;2022-11-15T00:22:37;4.80;99.90
63537;DHT22;49686;51.880;5.632;2022-11-15T00:25:05;4.80;99.90
63537;DHT22;49686;51.880;5.632;2022-11-15T00:27:32;4.80;99.90
63537;DHT22;49686;51.880;5.632;2022-11-15T00:29:58;4.80;99.90
63537;DHT22;49686;51.880;5.632;2022-11-15T00:32:25;4.80;99.90
63537;DHT22;49686;51.880;5.632;2022-11-15T00:34:53;4.90;99.90
63537;DHT22;49686;51.880;5.632;2022-11-15T00:37:20;4.90;99.90
63537;DHT22;49686;51.880;5.632;2022-11-15T00:39:46;4.90;99.90
63537;DHT22;49686;51.880;5.632;2022-11-15T00:42:13;4.90;99.90
63537;DHT22;49686;51.880;5.632;2022-11-15T00:44:40;5.00;99.90
63537;DHT22;49686;51.880;5.632;2022-11-15T00:47:06;5.00;99.90
63537;DHT22;49686;51.880;5.632;2022-11-15T00:49:33;5.10;99.90
63537;DHT22;49686;51.880;5.632;2022-11-15T00:52:01;5.10;99.90
63537;DHT22;49686;51.880;5.632;2022-11-15T00:54:28;5.10;99.90
63537;DHT22;49686;51.880;5.632;2022-11-15T00:56:55;5.10;99.90
63537;DHT22;49686;51.880;5.632;2022-11-15T00:59:21;5.10;99.90
63537;DHT22;49686;51.880;5.632;2022-11-15T01:01:48;5.20;99.90
63537;DHT22;49686;51.880;5.632;2022-11-15T01:04:15;5.20;99.90
63537;DHT22;49686;51.880;5.632;2022-11-15T01:06:41;5.20;99.90
63537;DHT22;49686;51.880;5.632;2022-11-15T01:09:09;5.30;99.90
63537;DHT22;49686;51.880;5.632;2022-11-15T01:11:36;5.30;99.90
63537;DHT22;49686;51.880;5.632;2022-11-15T01:14:03;5.40;99.90
63537;DHT22;49686;51.880;5.632;2022-11-15T01:16:30;5.40;99.90
63537;DHT22;49686;51.880;5.632;2022-11-15T01:18:56;5.40;99.90
63537;DHT22;49686;51.880;5.632;2022-11-15T01:21:23;5.50;99.90
63537;DHT22;49686;51.880;5.632;2022-11-15T01:23:52;5.50;99.90
63537;DHT22;49686;51.880;5.632;2022-11-15T01:26:21;5.50;99.90
63537;DHT22;49686;51.880;5.632;2022-11-15T01:28:48;5.60;99.90
63537;DHT22;49686;51.880;5.632;2022-11-15T01:31:17;5.60;99.90
63537;DHT22;49686;51.880;5.632;2022-11-15T01:33:45;5.70;99.90
63537;DHT22;49686;51.880;5.632;2022-11-15T01:36:14;5.80;99.90
63537;DHT22;49686;51.880;5.632;2022-11-15T01:38:41;5.80;99.90
63537;DHT22;49686;51.880;5.632;2022-11-15T01:41:15;5.90;99.90
63537;DHT22;49686;51.880;5.632;2022-11-15T01:43:43;6.00;99.90
63537;DHT22;49686;51.880;5.632;2022-11-15T01:46:25;6.00;99.90
63537;DHT22;49686;51.880;5.632;2022-11-15T01:48:56;6.10;99.90
63537;DHT22;49686;51.880;5.632;2022-11-15T01:51:25;6.10;99.90
63537;DHT22;49686;51.880;5.632;2022-11-15T01:53:55;6.10;99.90
63537;DHT22;49686;51.880;5.632;2022-11-15T01:56:24;6.10;99.90
63537;DHT22;49686;51.880;5.632;2022-11-15T01:58:55;6.20;99.90
63537;DHT22;49686;51.880;5.632;2022-11-15T02:01:24;6.20;99.90
63537;DHT22;49686;51.880;5.632;2022-11-15T02:03:54;6.20;99.90
63537;DHT22;49686;51.880;5.632;2022-11-15T02:06:22;6.20;99.90
63537;DHT22;49686;51.880;5.632;2022-11-15T02:08:49;6.30;99.90
63537;DHT22;49686;51.880;5.632;2022-11-15T02:11:16;6.30;99.90
63537;DHT22;49686;51.880;5.632;2022-11-15T02:13:43;6.30;99.90
63537;DHT22;49686;51.880;5.632;2022-11-15T02:16:16;6.40;99.90
63537;DHT22;49686;51.880;5.632;2022-11-15T02:18:53;6.40;99.90
63537;DHT22;49686;51.880;5.632;2022-11-15T02:21:28;6.40;99.90
63537;DHT22;49686;51.880;5.632;2022-11-15T02:24:17;6.50;99.90
63537;DHT22;49686;51.880;5.632;2022-11-15T02:32:57;6.60;99.90
63537;DHT22;49686;51.880;5.632;2022-11-15T02:35:31;6.70;99.90
63537;DHT22;49686;51.880;5.632;2022-11-15T02:38:06;6.70;99.90
63537;DHT22;49686;51.880;5.632;2022-11-15T02:40:41;6.70;99.90
63537;DHT22;49686;51.880;5.632;2022-11-15T02:43:11;6.80;99.90
63537;DHT22;49686;51.880;5.632;2022-11-15T02:45:41;6.90;99.90
63537;DHT22;49686;51.880;5.632;2022-11-15T02:48:12;6.90;99.90
63537;DHT22;49686;51.880;5.632;2022-11-15T02:50:39;7.00;99.90
63537;DHT22;49686;51.880;5.632;2022-11-15T02:53:07;7.00;99.90
63537;DHT22;49686;51.880;5.632;2022-11-15T02:55:36;7.00;99.90
63537;DHT22;49686;51.880;5.632;2022-11-15T02:58:25;7.00;99.90
63537;DHT22;49686;51.880;5.632;2022-11-15T03:01:00;7.10;99.90
63537;DHT22;49686;51.880;5.632;2022-11-15T03:03:51;7.10;99.90
63537;DHT22;49686;51.880;5.632;2022-11-15T03:06:26;7.20;99.90
63537;DHT22;49686;51.880;5.632;2022-11-15T03:09:02;7.20;99.90
63537;DHT22;49686;51.880;5.632;2022-11-15T03:11:32;7.30;99.90
63537;DHT22;49686;51.880;5.632;2022-11-15T03:14:08;7.30;99.90
63537;DHT22;49686;51.880;5.632;2022-11-15T03:16:43;7.40;99.90
63537;DHT22;49686;51.880;5.632;2022-11-15T03:19:16;7.50;99.90
63537;DHT22;49686;51.880;5.632;2022-11-15T03:21:44;7.50;99.90
63537;DHT22;49686;51.880;5.632;2022-11-15T03:24:14;7.50;99.90
63537;DHT22;49686;51.880;5.632;2022-11-15T03:26:46;7.60;99.90
63537;DHT22;49686;51.880;5.632;2022-11-15T03:29:16;7.60;99.90
63537;DHT22;49686;51.880;5.632;2022-11-15T03:31:46;7.70;99.90
63537;DHT22;49686;51.880;5.632;2022-11-15T03:34:25;7.80;99.90
63537;DHT22;49686;51.880;5.632;2022-11-15T03:36:54;7.80;99.90
63537;DHT22;49686;51.880;5.632;2022-11-15T03:39:21;7.80;99.90
63537;DHT22;49686;51.880;5.632;2022-11-15T03:41:56;7.80;99.90
63537;DHT22;49686;51.880;5.632;2022-11-15T03:44:33;7.90;99.90
63537;DHT22;49686;51.880;5.632;2022-11-15T03:47:06;7.90;99.90
63537;DHT22;49686;51.880;5.632;2022-11-15T03:49:37;7.90;99.90
63537;DHT22;49686;51.880;5.632;2022-11-15T03:52:05;7.90;99.90
63537;DHT22;49686;51.880;5.632;2022-11-15T03:54:32;7.90;99.90
63537;DHT22;49686;51.880;5.632;2022-11-15T03:56:59;7.90;99.90
63537;DHT22;49686;51.880;5.632;2022-11-15T03:59:26;7.90;99.90
63537;DHT22;49686;51.880;5.632;2022-11-15T04:01:52;8.00;99.90
63537;DHT22;49686;51.880;5.632;2022-11-15T04:04:19;8.00;99.90
63537;DHT22;49686;51.880;5.632;2022-11-15T04:06:47;8.00;99.90
63537;DHT22;49686;51.880;5.632;2022-11-15T04:09:14;8.00;99.90
63537;DHT22;49686;51.880;5.632;2022-11-15T04:11:41;8.00;99.90
63537;DHT22;49686;51.880;5.632;2022-11-15T04:14:07;8.00;99.90
63537;DHT22;49686;51.880;5.632;2022-11-15T04:16:34;8.00;99.90
63537;DHT22;49686;51.880;5.632;2022-11-15T04:19:08;8.10;99.90
63537;DHT22;49686;51.880;5.632;2022-11-15T04:21:34;8.00;99.90
63537;DHT22;49686;51.880;5.632;2022-11-15T04:24:03;8.00;99.90
63537;DHT22;49686;51.880;5.632;2022-11-15T04:26:30;8.10;99.90
63537;DHT22;49686;51.880;5.632;2022-11-15T04:28:57;8.10;99.90
63537;DHT22;49686;51.880;5.632;2022-11-15T04:31:23;8.10;99.90
63537;DHT22;49686;51.880;5.632;2022-11-15T04:33:50;8.10;99.90
63537;DHT22;49686;51.880;5.632;2022-11-15T04:36:17;8.10;99.90
63537;DHT22;49686;51.880;5.632;2022-11-15T04:38:44;8.10;99.90
63537;DHT22;49686;51.880;5.632;2022-11-15T04:41:12;8.10;99.90
63537;DHT22;49686;51.880;5.632;2022-11-15T04:43:39;8.20;99.90
63537;DHT22;49686;51.880;5.632;2022-11-15T04:46:06;8.10;99.90
63537;DHT22;49686;51.880;5.632;2022-11-15T04:48:32;8.10;99.90
63537;DHT22;49686;51.880;5.632;2022-11-15T04:50:59;8.10;99.90
63537;DHT22;49686;51.880;5.632;2022-11-15T04:53:26;8.20;99.90
63537;DHT22;49686;51.880;5.632;2022-11-15T04:55:52;8.10;99.90
63537;DHT22;49686;51.880;5.632;2022-11-15T04:58:21;8.10;99.90
63537;DHT22;49686;51.880;5.632;2022-11-15T05:00:47;8.20;99.90
63537;DHT22;49686;51.880;5.632;2022-11-15T05:03:14;8.20;99.90
63537;DHT22;49686;51.880;5.632;2022-11-15T05:05:41;8.20;99.90
63537;DHT22;49686;51.880;5.632;2022-11-15T05:08:08;8.10;99.90
63537;DHT22;49686;51.880;5.632;2022-11-15T05:10:35;8.10;99.90
63537;DHT22;49686;51.880;5.632;2022-11-15T05:13:01;8.20;99.90
63537;DHT22;49686;51.880;5.632;2022-11-15T05:15:29;8.20;99.90
63537;DHT22;49686;51.880;5.632;2022-11-15T05:17:59;8.20;99.90
63537;DHT22;49686;51.880;5.632;2022-11-15T05:20:26;8.20;99.90
63537;DHT22;49686;51.880;5.632;2022-11-15T05:22:54;8.30;99.90
63537;DHT22;49686;51.880;5.632;2022-11-15T05:25:20;8.30;99.90
63537;DHT22;49686;51.880;5.632;2022-11-15T05:27:47;8.30;99.90
63537;DHT22;49686;51.880;5.632;2022-11-15T05:30:15;8.30;99.90
63537;DHT22;49686;51.880;5.632;2022-11-15T05:32:43;8.30;99.90
63537;DHT22;49686;51.880;5.632;2022-11-15T05:35:13;8.40;99.90
63537;DHT22;49686;51.880;5.632;2022-11-15T05:37:43;8.40;99.90
63537;DHT22;49686;51.880;5.632;2022-11-15T05:40:10;8.30;99.90
63537;DHT22;49686;51.880;5.632;2022-11-15T05:42:37;8.30;99.90
63537;DHT22;49686;51.880;5.632;2022-11-15T05:45:06;8.40;99.90
63537;DHT22;49686;51.880;5.632;2022-11-15T05:47:36;8.40;99.90
63537;DHT22;49686;51.880;5.632;2022-11-15T05:50:06;8.40;99.90
63537;DHT22;49686;51.880;5.632;2022-11-15T05:52:35;8.40;99.90
63537;DHT22;49686;51.880;5.632;2022-11-15T05:55:03;8.40;99.90
63537;DHT22;49686;51.880;5.632;2022-11-15T05:57:31;8.40;99.90
63537;DHT22;49686;51.880;5.632;2022-11-15T05:59:58;8.40;99.90
63537;DHT22;49686;51.880;5.632;2022-11-15T06:02:25;8.40;99.90
63537;DHT22;49686;51.880;5.632;2022-11-15T06:04:52;8.40;99.90
63537;DHT22;49686;51.880;5.632;2022-11-15T06:07:20;8.50;99.90
63537;DHT22;49686;51.880;5.632;2022-11-15T06:09:47;8.40;99.90
63537;DHT22;49686;51.880;5.632;2022-11-15T06:12:13;8.40;99.90
63537;DHT22;49686;51.880;5.632;2022-11-15T06:14:40;8.50;99.90
63537;DHT22;49686;51.880;5.632;2022-11-15T06:17:07;8.50;99.90
63537;DHT22;49686;51.880;5.632;2022-11-15T06:19:37;8.50;99.90
63537;DHT22;49686;51.880;5.632;2022-11-15T06:22:03;8.50;99.90
63537;DHT22;49686;51.880;5.632;2022-11-15T06:24:31;8.50;99.90
63537;DHT22;49686;51.880;5.632;2022-11-15T06:26:58;8.40;99.90
63537;DHT22;49686;51.880;5.632;2022-11-15T06:29:25;8.50;99.90
63537;DHT22;49686;51.880;5.632;2022-11-15T06:31:52;8.50;99.90
63537;DHT22;49686;51.880;5.632;2022-11-15T06:34:18;8.50;99.90
63537;DHT22;49686;51.880;5.632;2022-11-15T06:36:45;8.50;99.90
63537;DHT22;49686;51.880;5.632;2022-11-15T06:39:12;8.60;99.90
63537;DHT22;49686;51.880;5.632;2022-11-15T06:41:40;8.50;99.90
63537;DHT22;49686;51.880;5.632;2022-11-15T06:44:06;8.50;99.90
63537;DHT22;49686;51.880;5.632;2022-11-15T06:46:33;8.50;99.90
63537;DHT22;49686;51.880;5.632;2022-11-15T06:49:00;8.50;99.90
63537;DHT22;49686;51.880;5.632;2022-11-15T06:51:35;8.50;99.90
63537;DHT22;49686;51.880;5.632;2022-11-15T06:54:02;8.50;99.90
63537;DHT22;49686;51.880;5.632;2022-11-15T06:56:28;8.50;99.90
63537;DHT22;49686;51.880;5.632;2022-11-15T06:58:57;8.40;99.90
63537;DHT22;49686;51.880;5.632;2022-11-15T07:01:23;8.40;99.90
63537;DHT22;49686;51.880;5.632;2022-11-15T07:03:50;8.40;99.90
63537;DHT22;49686;51.880;5.632;2022-11-15T07:06:17;8.40;99.90
63537;DHT22;49686;51.880;5.632;2022-11-15T07:08:44;8.40;99.90
63537;DHT22;49686;51.880;5.632;2022-11-15T07:11:10;8.40;99.90
63537;DHT22;49686;51.880;5.632;2022-11-15T07:13:37;8.40;99.90
63537;DHT22;49686;51.880;5.632;2022-11-15T07:16:07;8.50;99.90
63537;DHT22;49686;51.880;5.632;2022-11-15T07:18:34;8.50;99.90
63537;DHT22;49686;51.880;5.632;2022-11-15T07:21:02;8.50;99.90
63537;DHT22;49686;51.880;5.632;2022-11-15T07:23:29;8.50;99.90
63537;DHT22;49686;51.880;5.632;2022-11-15T07:25:57;8.50;99.90
63537;DHT22;49686;51.880;5.632;2022-11-15T07:28:24;8.50;99.90
63537;DHT22;49686;51.880;5.632;2022-11-15T07:30:51;8.40;99.90
63537;DHT22;49686;51.880;5.632;2022-11-15T07:33:19;8.40;99.90
63537;DHT22;49686;51.880;5.632;2022-11-15T07:35:45;8.40;99.90
63537;DHT22;49686;51.880;5.632;2022-11-15T07:38:12;8.40;99.90
63537;DHT22;49686;51.880;5.632;2022-11-15T07:40:39;8.50;99.90
63537;DHT22;49686;51.880;5.632;2022-11-15T07:43:07;8.40;99.90
63537;DHT22;49686;51.880;5.632;2022-11-15T07:45:40;8.40;99.90
63537;DHT22;49686;51.880;5.632;2022-11-15T07:48:07;8.50;99.90
63537;DHT22;49686;51.880;5.632;2022-11-15T07:50:35;8.50;99.90
63537;DHT22;49686;51.880;5.632;2022-11-15T07:53:02;8.50;99.90
63537;DHT22;49686;51.880;5.632;2022-11-15T07:55:28;8.50;99.90
63537;DHT22;49686;51.880;5.632;2022-11-15T07:58:00;8.60;99.90
63537;DHT22;49686;51.880;5.632;2022-11-15T08:00:27;8.60;99.90
63537;DHT22;49686;51.880;5.632;2022-11-15T08:03:01;8.60;99.90
63537;DHT22;49686;51.880;5.632;2022-11-15T08:05:28;8.60;99.90
63537;DHT22;49686;51.880;5.632;2022-11-15T08:07:56;8.60;99.90
63537;DHT22;49686;51.880;5.632;2022-11-15T08:10:23;8.60;99.90
63537;DHT22;49686;51.880;5.632;2022-11-15T08:12:57;8.60;99.90
63537;DHT22;49686;51.880;5.632;2022-11-15T08:15:24;8.60;99.90
63537;DHT22;49686;51.880;5.632;2022-11-15T08:17:54;8.60;99.90
63537;DHT22;49686;51.880;5.632;2022-11-15T08:20:20;8.60;99.90
63537;DHT22;49686;51.880;5.632;2022-11-15T08:22:47;8.60;99.90
63537;DHT22;49686;51.880;5.632;2022-11-15T08:25:15;8.50;99.90
63537;DHT22;49686;51.880;5.632;2022-11-15T08:27:42;8.60;99.90
63537;DHT22;49686;51.880;5.632;2022-11-15T08:30:10;8.70;99.90
63537;DHT22;49686;51.880;5.632;2022-11-15T08:32:37;8.70;99.90
63537;DHT22;49686;51.880;5.632;2022-11-15T08:35:05;8.80;99.90
63537;DHT22;49686;51.880;5.632;2022-11-15T08:37:32;8.80;99.90
63537;DHT22;49686;51.880;5.632;2022-11-15T08:39:58;8.70;99.90
63537;DHT22;49686;51.880;5.632;2022-11-15T08:42:26;8.80;99.90
63537;DHT22;49686;51.880;5.632;2022-11-15T08:44:53;8.80;99.90
63537;DHT22;49686;51.880;5.632;2022-11-15T08:47:20;8.80;99.90
63537;DHT22;49686;51.880;5.632;2022-11-15T08:49:47;8.80;99.90
63537;DHT22;49686;51.880;5.632;2022-11-15T08:52:14;8.80;99.90
63537;DHT22;49686;51.880;5.632;2022-11-15T08:54:40;8.80;99.90
63537;DHT22;49686;51.880;5.632;2022-11-15T08:57:07;8.80;99.90
63537;DHT22;49686;51.880;5.632;2022-11-15T08:59:35;8.80;99.90
63537;DHT22;49686;51.880;5.632;2022-11-15T09:02:03;8.90;99.90
63537;DHT22;49686;51.880;5.632;2022-11-15T09:04:30;8.90;99.90
63537;DHT22;49686;51.880;5.632;2022-11-15T09:06:57;8.90;99.90
63537;DHT22;49686;51.880;5.632;2022-11-15T09:09:24;9.00;99.90
63537;DHT22;49686;51.880;5.632;2022-11-15T09:11:50;9.00;99.90
63537;DHT22;49686;51.880;5.632;2022-11-15T09:14:17;9.00;99.90
63537;DHT22;49686;51.880;5.632;2022-11-15T09:16:45;9.10;99.90
63537;DHT22;49686;51.880;5.632;2022-11-15T09:19:12;9.20;99.90
63537;DHT22;49686;51.880;5.632;2022-11-15T09:21:39;9.20;99.90
63537;DHT22;49686;51.880;5.632;2022-11-15T09:24:06;9.20;99.90
63537;DHT22;49686;51.880;5.632;2022-11-15T09:26:32;9.20;99.90
63537;DHT22;49686;51.880;5.632;2022-11-15T09:28:59;9.30;99.90
63537;DHT22;49686;51.880;5.632;2022-11-15T09:31:26;9.50;99.90
63537;DHT22;49686;51.880;5.632;2022-11-15T09:33:54;9.60;99.90
63537;DHT22;49686;51.880;5.632;2022-11-15T09:36:20;9.60;99.90
63537;DHT22;49686;51.880;5.632;2022-11-15T09:38:47;9.70;99.90
63537;DHT22;49686;51.880;5.632;2022-11-15T09:44:32;9.90;99.90
63537;DHT22;49686;51.880;5.632;2022-11-15T09:47:13;9.90;99.90
63537;DHT22;49686;51.880;5.632;2022-11-15T09:49:45;10.10;99.90
63537;DHT22;49686;51.880;5.632;2022-11-15T09:52:12;10.00;99.90
63537;DHT22;49686;51.880;5.632;2022-11-15T09:54:41;10.00;99.90
63537;DHT22;49686;51.880;5.632;2022-11-15T09:57:25;10.10;99.90
63537;DHT22;49686;51.880;5.632;2022-11-15T10:00:04;10.00;99.90
63537;DHT22;49686;51.880;5.632;2022-11-15T10:03:06;9.90;99.90
63537;DHT22;49686;51.880;5.632;2022-11-15T10:05:38;9.70;99.90
63537;DHT22;49686;51.880;5.632;2022-11-15T10:08:13;9.70;99.90
63537;DHT22;49686;51.880;5.632;2022-11-15T10:10:49;9.60;99.90
63537;DHT22;49686;51.880;5.632;2022-11-15T10:13:41;9.60;99.90
63537;DHT22;49686;51.880;5.632;2022-11-15T10:16:18;9.70;99.90
63537;DHT22;49686;51.880;5.632;2022-11-15T10:18:53;9.70;99.90
63537;DHT22;49686;51.880;5.632;2022-11-15T10:21:40;9.70;99.90
63537;DHT22;49686;51.880;5.632;2022-11-15T10:24:13;9.60;99.90
63537;DHT22;49686;51.880;5.632;2022-11-15T10:26:46;9.50;99.90
63537;DHT22;49686;51.880;5.632;2022-11-15T10:29:18;9.60;99.90
63537;DHT22;49686;51.880;5.632;2022-11-15T10:31:45;9.60;99.90
63537;DHT22;49686;51.880;5.632;2022-11-15T10:34:14;9.70;99.90
63537;DHT22;49686;51.880;5.632;2022-11-15T10:36:46;9.80;99.90
63537;DHT22;49686;51.880;5.632;2022-11-15T10:39:16;9.80;99.90
63537;DHT22;49686;51.880;5.632;2022-11-15T10:41:43;9.80;99.90
63537;DHT22;49686;51.880;5.632;2022-11-15T10:44:19;9.90;99.90
63537;DHT22;49686;51.880;5.632;2022-11-15T10:46:48;10.10;99.90
63537;DHT22;49686;51.880;5.632;2022-11-15T10:49:30;10.10;99.90
63537;DHT22;49686;51.880;5.632;2022-11-15T10:52:01;10.10;99.90
63537;DHT22;49686;51.880;5.632;2022-11-15T10:54:33;10.00;99.90
63537;DHT22;49686;51.880;5.632;2022-11-15T10:57:07;9.90;99.90
63537;DHT22;49686;51.880;5.632;2022-11-15T10:59:36;9.90;99.90
63537;DHT22;49686;51.880;5.632;2022-11-15T11:02:25;9.90;99.90
63537;DHT22;49686;51.880;5.632;2022-11-15T11:04:53;10.10;99.90
63537;DHT22;49686;51.880;5.632;2022-11-15T11:07:23;10.10;99.90
63537;DHT22;49686;51.880;5.632;2022-11-15T11:09:58;10.10;99.90
63537;DHT22;49686;51.880;5.632;2022-11-15T11:12:28;10.10;99.90
63537;DHT22;49686;51.880;5.632;2022-11-15T11:14:55;10.20;99.90
63537;DHT22;49686;51.880;5.632;2022-11-15T11:17:25;10.30;99.90
63537;DHT22;49686;51.880;5.632;2022-11-15T11:20:02;10.40;99.90
63537;DHT22;49686;51.880;5.632;2022-11-15T11:22:37;10.20;99.90
63537;DHT22;49686;51.880;5.632;2022-11-15T11:25:15;10.30;99.90
63537;DHT22;49686;51.880;5.632;2022-11-15T11:27:55;10.50;99.90
63537;DHT22;49686;51.880;5.632;2022-11-15T11:30:29;10.50;99.90
63537;DHT22;49686;51.880;5.632;2022-11-15T11:33:10;10.40;99.90
63537;DHT22;49686;51.880;5.632;2022-11-15T11:35:46;10.50;99.90
63537;DHT22;49686;51.880;5.632;2022-11-15T11:38:33;10.40;99.90
63537;DHT22;49686;51.880;5.632;2022-11-15T11:41:07;10.20;99.90
63537;DHT22;49686;51.880;5.632;2022-11-15T11:43:41;10.20;99.90
63537;DHT22;49686;51.880;5.632;2022-11-15T11:46:38;10.20;99.90
63537;DHT22;49686;51.880;5.632;2022-11-15T11:49:09;10.30;99.90
63537;DHT22;49686;51.880;5.632;2022-11-15T11:51:41;10.40;99.90
63537;DHT22;49686;51.880;5.632;2022-11-15T11:54:14;10.20;99.90
63537;DHT22;49686;51.880;5.632;2022-11-15T11:56:44;10.10;99.90
63537;DHT22;49686;51.880;5.632;2022-11-15T11:59:18;10.00;99.90
63537;DHT22;49686;51.880;5.632;2022-11-15T12:01:45;10.10;99.90
63537;DHT22;49686;51.880;5.632;2022-11-15T12:04:16;10.20;99.90
63537;DHT22;49686;51.880;5.632;2022-11-15T12:06:48;10.10;99.90
63537;DHT22;49686;51.880;5.632;2022-11-15T12:09:21;10.00;99.90
63537;DHT22;49686;51.880;5.632;2022-11-15T12:11:55;10.10;99.90
63537;DHT22;49686;51.880;5.632;2022-11-15T12:14:32;10.20;99.90
63537;DHT22;49686;51.880;5.632;2022-11-15T12:17:00;10.10;99.90
63537;DHT22;49686;51.880;5.632;2022-11-15T12:19:28;10.10;99.90
63537;DHT22;49686;51.880;5.632;2022-11-15T12:22:00;10.10;99.90
63537;DHT22;49686;51.880;5.632;2022-11-15T12:24:34;10.20;99.90
63537;DHT22;49686;51.880;5.632;2022-11-15T12:27:07;10.20;99.90
63537;DHT22;49686;51.880;5.632;2022-11-15T12:29:41;10.30;99.90
63537;DHT22;49686;51.880;5.632;2022-11-15T12:32:24;10.40;99.90
63537;DHT22;49686;51.880;5.632;2022-11-15T12:34:52;10.30;99.90
63537;DHT22;49686;51.880;5.632;2022-11-15T12:40:24;10.20;99.90
63537;DHT22;49686;51.880;5.632;2022-11-15T12:43:00;10.30;99.90
63537;DHT22;49686;51.880;5.632;2022-11-15T12:45:29;10.30;99.90
63537;DHT22;49686;51.880;5.632;2022-11-15T12:51:08;10.10;99.90
63537;DHT22;49686;51.880;5.632;2022-11-15T12:53:35;10.20;99.90
63537;DHT22;49686;51.880;5.632;2022-11-15T12:56:21;10.20;99.90
63537;DHT22;49686;51.880;5.632;2022-11-15T12:58:51;10.10;99.90
63537;DHT22;49686;51.880;5.632;2022-11-15T13:01:55;10.10;99.90
63537;DHT22;49686;51.880;5.632;2022-11-15T13:04:25;10.00;99.90
63537;DHT22;49686;51.880;5.632;2022-11-15T13:06:54;10.00;99.90
63537;DHT22;49686;51.880;5.632;2022-11-15T13:09:52;10.00;99.90
63537;DHT22;49686;51.880;5.632;2022-11-15T13:12:55;9.90;99.90
63537;DHT22;49686;51.880;5.632;2022-11-15T13:15:37;9.90;99.90
63537;DHT22;49686;51.880;5.632;2022-11-15T13:18:39;9.80;99.90
63537;DHT22;49686;51.880;5.632;2022-11-15T13:21:20;9.80;99.90
63537;DHT22;49686;51.880;5.632;2022-11-15T13:23:52;9.80;99.90
63537;DHT22;49686;51.880;5.632;2022-11-15T13:26:19;9.80;99.90
63537;DHT22;49686;51.880;5.632;2022-11-15T13:28:48;9.80;99.90
63537;DHT22;49686;51.880;5.632;2022-11-15T13:31:26;9.80;99.90
63537;DHT22;49686;51.880;5.632;2022-11-15T13:33:56;9.80;99.90
63537;DHT22;49686;51.880;5.632;2022-11-15T13:36:25;9.80;99.90
63537;DHT22;49686;51.880;5.632;2022-11-15T13:38:58;9.80;99.90
63537;DHT22;49686;51.880;5.632;2022-11-15T13:41:27;9.70;99.90
63537;DHT22;49686;51.880;5.632;2022-11-15T13:43:56;9.70;99.90
63537;DHT22;49686;51.880;5.632;2022-11-15T13:46:25;9.70;99.90
63537;DHT22;49686;51.880;5.632;2022-11-15T13:48:54;9.70;99.90
63537;DHT22;49686;51.880;5.632;2022-11-15T13:51:29;9.70;99.90
63537;DHT22;49686;51.880;5.632;2022-11-15T13:53:58;9.70;99.90
63537;DHT22;49686;51.880;5.632;2022-11-15T13:56:29;9.60;99.90
63537;DHT22;49686;51.880;5.632;2022-11-15T13:58:59;9.60;99.90
63537;DHT22;49686;51.880;5.632;2022-11-15T14:01:28;9.60;99.90
63537;DHT22;49686;51.880;5.632;2022-11-15T14:03:59;9.50;99.90
63537;DHT22;49686;51.880;5.632;2022-11-15T14:06:27;9.50;99.90
63537;DHT22;49686;51.880;5.632;2022-11-15T14:11:51;9.70;99.90
63537;DHT22;49686;51.880;5.632;2022-11-15T14:14:21;9.80;99.90
63537;DHT22;49686;51.880;5.632;2022-11-15T14:16:50;9.80;99.90
63537;DHT22;49686;51.880;5.632;2022-11-15T14:19:33;9.80;99.90
63537;DHT22;49686;51.880;5.632;2022-11-15T14:22:27;9.80;99.90
63537;DHT22;49686;51.880;5.632;2022-11-15T14:25:14;9.80;99.90
63537;DHT22;49686;51.880;5.632;2022-11-15T14:27:43;9.80;99.90
63537;DHT22;49686;51.880;5.632;2022-11-15T14:30:16;9.80;99.90
63537;DHT22;49686;51.880;5.632;2022-11-15T14:32:45;9.80;99.90
63537;DHT22;49686;51.880;5.632;2022-11-15T14:35:14;9.80;99.90
63537;DHT22;49686;51.880;5.632;2022-11-15T14:37:42;9.80;99.90
63537;DHT22;49686;51.880;5.632;2022-11-15T14:40:12;9.80;99.90
63537;DHT22;49686;51.880;5.632;2022-11-15T14:42:40;9.80;99.90
63537;DHT22;49686;51.880;5.632;2022-11-15T14:45:11;9.80;99.90
63537;DHT22;49686;51.880;5.632;2022-11-15T14:47:40;9.80;99.90
63537;DHT22;49686;51.880;5.632;2022-11-15T14:50:11;9.70;99.90
63537;DHT22;49686;51.880;5.632;2022-11-15T14:52:38;9.70;99.90
63537;DHT22;49686;51.880;5.632;2022-11-15T14:55:14;9.70;99.90
63537;DHT22;49686;51.880;5.632;2022-11-15T14:57:41;9.60;99.90
63537;DHT22;49686;51.880;5.632;2022-11-15T15:00:09;9.60;99.90
63537;DHT22;49686;51.880;5.632;2022-11-15T15:02:36;9.60;99.90
63537;DHT22;49686;51.880;5.632;2022-11-15T15:05:13;9.70;99.90
63537;DHT22;49686;51.880;5.632;2022-11-15T15:07:40;9.60;99.90
63537;DHT22;49686;51.880;5.632;2022-11-15T15:10:07;9.60;99.90
63537;DHT22;49686;51.880;5.632;2022-11-15T15:12:54;9.60;99.90
63537;DHT22;49686;51.880;5.632;2022-11-15T15:15:25;9.60;99.90
63537;DHT22;49686;51.880;5.632;2022-11-15T15:17:52;9.60;99.90
63537;DHT22;49686;51.880;5.632;2022-11-15T15:20:20;9.60;99.90
63537;DHT22;49686;51.880;5.632;2022-11-15T15:22:47;9.60;99.90
63537;DHT22;49686;51.880;5.632;2022-11-15T15:25:27;9.60;99.90
63537;DHT22;49686;51.880;5.632;2022-11-15T15:27:54;9.60;99.90
63537;DHT22;49686;51.880;5.632;2022-11-15T15:30:21;9.60;99.90
63537;DHT22;49686;51.880;5.632;2022-11-15T15:32:48;9.60;99.90
63537;DHT22;49686;51.880;5.632;2022-11-15T15:35:16;9.60;99.90
63537;DHT22;49686;51.880;5.632;2022-11-15T15:37:45;9.70;99.90
63537;DHT22;49686;51.880;5.632;2022-11-15T15:40:14;9.60;99.90
63537;DHT22;49686;51.880;5.632;2022-11-15T15:42:41;9.60;99.90
63537;DHT22;49686;51.880;5.632;2022-11-15T15:45:09;9.70;99.90
63537;DHT22;49686;51.880;5.632;2022-11-15T15:47:36;9.70;99.90
63537;DHT22;49686;51.880;5.632;2022-11-15T15:50:04;9.70;99.90
63537;DHT22;49686;51.880;5.632;2022-11-15T15:52:31;9.70;99.90
63537;DHT22;49686;51.880;5.632;2022-11-15T15:54:59;9.70;99.90
63537;DHT22;49686;51.880;5.632;2022-11-15T15:57:26;9.70;99.90
63537;DHT22;49686;51.880;5.632;2022-11-15T15:59:52;9.70;99.90
63537;DHT22;49686;51.880;5.632;2022-11-15T16:02:19;9.80;99.90
63537;DHT22;49686;51.880;5.632;2022-11-15T16:04:46;9.70;99.90
63537;DHT22;49686;51.880;5.632;2022-11-15T16:07:17;9.80;99.90
63537;DHT22;49686;51.880;5.632;2022-11-15T16:09:47;9.80;99.90
63537;DHT22;49686;51.880;5.632;2022-11-15T16:12:15;9.90;99.90
63537;DHT22;49686;51.880;5.632;2022-11-15T16:14:42;9.90;99.90
63537;DHT22;49686;51.880;5.632;2022-11-15T16:17:10;9.90;99.90
63537;DHT22;49686;51.880;5.632;2022-11-15T16:19:41;9.90;99.90
63537;DHT22;49686;51.880;5.632;2022-11-15T16:22:07;9.90;99.90